Time;durP1;ratioP1;P1;durP2;ratioP2;P2;SDS_P1;SDS_P2;PMS_P1;PMS_P2;Temp;Humidity;BMP_temperature;BMP_pressure;BME280_temperature;BME280_humidity;BME280_pressure;Samples;Min_cycle;Max_cycle;Signal;HPM_P1;HPM_P2
2022/05/22 00:01:39;;;;;;;6.32;2.78;;;14.40;99.90;;;;;;5063279;28;20832;-41
2022/05/22 00:04:04;;;;;;;5.43;2.30;;;14.30;99.90;;;;;;5064899;28;20553;-41
2022/05/22 00:06:30;;;;;;;9.27;3.05;;;14.40;99.90;;;;;;5065334;28;20254;-41
2022/05/22 00:08:55;;;;;;;6.15;2.88;;;14.30;99.90;;;;;;5065865;28;20103;-42
2022/05/22 00:11:22;;;;;;;6.72;2.78;;;14.30;99.90;;;;;;5065158;28;20043;-42
2022/05/22 00:13:48;;;;;;;6.40;2.80;;;14.30;99.90;;;;;;5065706;28;20354;-41
2022/05/22 00:18:58;;;;;;;6.75;3.08;;;14.30;99.90;;;;;;5065471;28;20483;-39
2022/05/22 00:21:24;;;;;;;6.68;2.95;;;14.30;99.90;;;;;;5065005;28;20024;-42
2022/05/22 00:23:50;;;;;;;5.53;2.83;;;14.20;99.90;;;;;;5064988;28;20036;-41
2022/05/22 00:26:15;;;;;;;9.23;3.40;;;14.20;99.90;;;;;;5064749;28;20032;-42
2022/05/22 00:28:41;;;;;;;7.95;2.92;;;14.10;99.90;;;;;;5065247;28;20472;-41
2022/05/22 00:31:06;;;;;;;5.72;3.05;;;14.10;99.90;;;;;;5064489;28;20032;-41
2022/05/22 00:33:32;;;;;;;5.63;2.67;;;14.00;99.90;;;;;;5064915;28;20573;-40
2022/05/22 00:35:57;;;;;;;7.70;3.25;;;14.00;99.90;;;;;;5065138;28;20020;-41
2022/05/22 00:38:23;;;;;;;9.15;3.38;;;14.00;99.90;;;;;;5064571;28;20037;-41
2022/05/22 00:40:49;;;;;;;6.45;3.10;;;13.90;99.90;;;;;;5064947;28;20281;-42
2022/05/22 00:43:28;;;;;;;6.82;3.67;;;13.90;99.90;;;;;;5065084;28;20060;-41
2022/05/22 00:45:54;;;;;;;9.15;3.33;;;13.80;99.90;;;;;;5068617;28;20146;-42
2022/05/22 00:48:20;;;;;;;5.28;3.10;;;13.80;99.90;;;;;;5068894;28;20017;-40
2022/05/22 00:50:46;;;;;;;6.55;3.45;;;13.80;99.90;;;;;;5069204;28;20028;-42
2022/05/22 00:53:12;;;;;;;7.40;3.28;;;13.80;99.90;;;;;;5068948;28;20029;-41
2022/05/22 00:55:37;;;;;;;6.78;3.10;;;13.70;99.90;;;;;;5068458;28;20678;-41
2022/05/22 00:58:16;;;;;;;9.15;3.90;;;13.70;99.90;;;;;;5069321;28;20028;-42
2022/05/22 01:00:42;;;;;;;8.27;3.58;;;13.60;99.90;;;;;;5068653;28;20024;-41
2022/05/22 01:03:29;;;;;;;8.73;4.68;;;13.60;99.90;;;;;;5059714;28;20060;-39
2022/05/22 01:06:03;;;;;;;6.47;3.78;;;13.50;99.90;;;;;;5049694;28;20094;-42
2022/05/22 01:08:31;;;;;;;8.73;4.10;;;13.50;99.90;;;;;;5058485;28;20021;-42
2022/05/22 01:11:05;;;;;;;9.15;4.40;;;13.50;99.90;;;;;;5050163;28;20123;-42
2022/05/22 01:13:34;;;;;;;8.13;4.25;;;13.40;99.90;;;;;;5045663;28;20020;-41
2022/05/22 01:16:01;;;;;;;9.57;4.10;;;13.40;99.90;;;;;;5066903;28;20622;-42
2022/05/22 01:18:27;;;;;;;9.85;5.15;;;13.40;99.90;;;;;;5056734;28;20035;-42
2022/05/22 01:20:54;;;;;;;11.10;4.78;;;13.40;99.90;;;;;;5067326;28;20024;-42
2022/05/22 01:23:21;;;;;;;9.60;4.30;;;13.40;99.90;;;;;;5056513;28;20051;-41
2022/05/22 01:25:47;;;;;;;7.95;4.00;;;13.40;99.90;;;;;;5051121;28;20037;-41
2022/05/22 01:28:15;;;;;;;9.57;4.57;;;13.40;99.90;;;;;;5060565;28;20472;-41
2022/05/22 01:30:41;;;;;;;8.07;3.45;;;13.30;99.90;;;;;;5048190;28;20029;-41
2022/05/22 01:33:07;;;;;;;8.98;4.50;;;13.30;99.90;;;;;;5061164;28;20085;-41
2022/05/22 01:35:35;;;;;;;11.82;4.20;;;13.30;99.90;;;;;;5027894;28;20046;-42
2022/05/22 01:38:01;;;;;;;7.88;3.97;;;13.30;99.90;;;;;;5053379;28;20020;-42
2022/05/22 01:40:26;;;;;;;8.63;3.83;;;13.20;99.90;;;;;;5050116;28;20082;-44
2022/05/22 01:42:52;;;;;;;7.93;4.50;;;13.20;99.90;;;;;;5055476;28;20384;-41
2022/05/22 01:45:22;;;;;;;8.65;4.35;;;13.20;99.90;;;;;;5052413;28;20037;-42
2022/05/22 01:47:48;;;;;;;10.30;4.22;;;13.20;99.90;;;;;;5053202;28;20016;-42
2022/05/22 01:50:14;;;;;;;7.80;4.07;;;13.20;99.90;;;;;;5054687;28;20029;-41
2022/05/22 01:52:41;;;;;;;9.05;3.78;;;13.10;99.90;;;;;;5050758;28;20029;-41
2022/05/22 01:55:08;;;;;;;10.75;4.45;;;13.10;99.90;;;;;;5056106;28;20111;-41
2022/05/22 01:57:33;;;;;;;7.57;4.68;;;13.10;99.90;;;;;;5048792;28;20040;-40
2022/05/22 01:59:59;;;;;;;7.32;4.13;;;13.10;99.90;;;;;;5059087;28;20580;-40
2022/05/22 02:02:24;;;;;;;9.20;4.80;;;13.00;99.90;;;;;;5056301;28;20393;-41
2022/05/22 02:04:50;;;;;;;6.25;3.72;;;13.00;99.90;;;;;;5068089;28;20032;-40
2022/05/22 02:10:00;;;;;;;7.28;3.70;;;13.00;99.90;;;;;;5067806;28;20782;-43
2022/05/22 02:12:26;;;;;;;7.28;4.00;;;12.90;99.90;;;;;;5067480;28;20029;-42
2022/05/22 02:14:52;;;;;;;10.88;3.92;;;12.90;99.90;;;;;;5067680;28;20025;-41
2022/05/22 02:17:17;;;;;;;10.07;4.15;;;12.90;99.90;;;;;;5067310;28;20051;-42
2022/05/22 02:19:43;;;;;;;8.35;3.65;;;12.90;99.90;;;;;;5066299;28;20235;-42
2022/05/22 02:22:09;;;;;;;12.25;4.47;;;12.80;99.90;;;;;;5067508;28;20025;-42
2022/05/22 02:24:34;;;;;;;7.90;4.07;;;12.70;99.90;;;;;;5066647;28;20020;-40
2022/05/22 02:27:03;;;;;;;7.82;3.90;;;12.70;99.90;;;;;;5067496;28;20460;-43
2022/05/22 02:29:28;;;;;;;9.60;4.20;;;12.60;99.90;;;;;;5066775;28;20116;-41
2022/05/22 02:31:54;;;;;;;6.93;4.10;;;12.60;99.90;;;;;;5067280;28;20120;-42
2022/05/22 02:34:19;;;;;;;6.40;3.97;;;12.60;99.90;;;;;;5066946;28;20427;-42
2022/05/22 02:36:45;;;;;;;6.72;4.10;;;12.60;99.90;;;;;;5066843;28;20028;-42
2022/05/22 02:39:10;;;;;;;6.88;3.75;;;12.50;99.90;;;;;;5067830;28;20588;-41
2022/05/22 02:41:36;;;;;;;6.47;3.85;;;12.50;99.90;;;;;;5066172;28;20068;-42
2022/05/22 02:44:02;;;;;;;6.50;4.00;;;12.50;99.90;;;;;;5066681;28;20027;-41
2022/05/22 02:46:27;;;;;;;5.57;3.92;;;12.50;99.90;;;;;;5066950;28;20036;-42
2022/05/22 02:48:53;;;;;;;8.50;4.60;;;12.40;99.90;;;;;;5066940;28;20047;-42
2022/05/22 02:51:20;;;;;;;7.20;4.18;;;12.40;99.90;;;;;;5066313;28;20024;-40
2022/05/22 02:53:46;;;;;;;8.88;4.30;;;12.40;99.90;;;;;;5067060;28;20016;-42
2022/05/22 02:56:15;;;;;;;9.48;4.55;;;12.40;99.90;;;;;;5066358;28;20529;-42
2022/05/22 02:58:41;;;;;;;8.85;4.10;;;12.40;99.90;;;;;;5066428;28;20044;-41
2022/05/22 03:01:06;;;;;;;7.38;3.88;;;12.40;99.90;;;;;;5066881;28;20068;-42
2022/05/22 03:03:32;;;;;;;8.85;4.15;;;12.40;99.90;;;;;;5065962;28;20064;-42
2022/05/22 03:08:42;;;;;;;8.18;4.00;;;12.40;99.90;;;;;;5025357;28;20117;-41
2022/05/22 03:11:08;;;;;;;6.70;3.67;;;12.30;99.90;;;;;;5051718;28;20116;-40
2022/05/22 03:13:34;;;;;;;7.28;3.65;;;12.30;99.90;;;;;;5047558;28;20117;-40
2022/05/22 03:16:00;;;;;;;8.00;3.78;;;12.30;99.90;;;;;;5053824;28;20032;-42
2022/05/22 03:18:26;;;;;;;9.60;4.35;;;12.30;99.90;;;;;;5050622;28;20029;-41
2022/05/22 03:20:51;;;;;;;8.25;3.95;;;12.30;99.90;;;;;;5050792;28;20028;-42
2022/05/22 03:23:17;;;;;;;5.78;3.53;;;12.30;99.90;;;;;;5053088;28;20028;-42
2022/05/22 03:25:44;;;;;;;7.30;3.88;;;12.30;99.90;;;;;;5059148;28;20542;-41
2022/05/22 03:28:10;;;;;;;7.43;3.90;;;12.30;99.90;;;;;;5056179;28;20456;-43
2022/05/22 03:30:36;;;;;;;7.15;3.47;;;12.30;99.90;;;;;;5063616;28;20028;-41
2022/05/22 03:33:02;;;;;;;7.28;3.88;;;12.30;99.90;;;;;;5054480;28;20020;-41
2022/05/22 03:35:27;;;;;;;5.50;3.50;;;12.30;99.90;;;;;;5063619;28;20028;-40
2022/05/22 03:37:53;;;;;;;6.82;3.90;;;12.20;99.90;;;;;;5054650;28;20372;-41
2022/05/22 03:40:18;;;;;;;5.60;3.15;;;12.20;99.90;;;;;;5065590;28;20098;-42
2022/05/22 03:42:44;;;;;;;6.28;3.40;;;12.20;99.90;;;;;;5052969;28;20132;-42
2022/05/22 03:45:10;;;;;;;6.18;3.38;;;12.20;99.90;;;;;;5065136;28;20055;-42
2022/05/22 03:47:38;;;;;;;8.13;3.40;;;12.20;99.90;;;;;;5052519;28;20029;-40
2022/05/22 03:50:06;;;;;;;6.70;3.58;;;12.20;99.90;;;;;;5066248;28;20025;-42
2022/05/22 03:52:37;;;;;;;7.25;3.58;;;12.20;99.90;;;;;;5054722;28;20029;-41
2022/05/22 03:55:04;;;;;;;8.95;3.55;;;12.20;99.90;;;;;;5064377;28;20115;-42
2022/05/22 03:57:30;;;;;;;6.18;3.22;;;12.20;99.90;;;;;;5055506;28;20040;-41
2022/05/22 03:59:55;;;;;;;3.97;2.97;;;12.20;99.90;;;;;;5062088;28;20016;-41
2022/05/22 04:02:21;;;;;;;9.50;3.45;;;12.20;99.90;;;;;;5059770;28;20087;-41
2022/05/22 04:04:47;;;;;;;6.40;3.40;;;12.20;99.90;;;;;;5051744;28;20025;-40
2022/05/22 04:07:13;;;;;;;6.40;3.38;;;12.20;99.90;;;;;;5049007;28;20033;-42
2022/05/22 04:09:39;;;;;;;9.32;3.58;;;12.20;99.90;;;;;;5053805;28;20013;-41
2022/05/22 04:12:09;;;;;;;5.07;3.10;;;12.20;99.90;;;;;;5047160;28;20032;-41
2022/05/22 04:14:34;;;;;;;6.45;3.65;;;12.20;99.90;;;;;;5043413;28;20055;-42
2022/05/22 04:17:00;;;;;;;7.22;3.55;;;12.20;99.90;;;;;;5063645;28;20782;-41
2022/05/22 04:19:25;;;;;;;5.72;3.42;;;12.20;99.90;;;;;;5053629;28;20070;-42
2022/05/22 04:21:51;;;;;;;6.93;3.70;;;12.20;99.90;;;;;;5065499;28;20056;-43
2022/05/22 04:27:05;;;;;;;6.85;4.03;;;12.20;99.90;;;;;;5045762;28;20063;-40
2022/05/22 04:29:32;;;;;;;7.05;3.80;;;12.20;99.90;;;;;;5051956;28;20933;-40
2022/05/22 04:31:58;;;;;;;8.27;3.80;;;12.20;99.90;;;;;;5065854;28;20017;-42
2022/05/22 04:34:23;;;;;;;6.25;3.75;;;12.30;99.90;;;;;;5052025;28;20029;-42
2022/05/22 04:36:49;;;;;;;9.50;4.10;;;12.40;99.90;;;;;;5064969;28;20056;-42
2022/05/22 04:39:14;;;;;;;7.40;4.13;;;12.40;99.90;;;;;;5053112;28;20461;-40
2022/05/22 04:41:40;;;;;;;7.85;4.28;;;12.40;99.90;;;;;;5064392;28;20039;-39
2022/05/22 04:44:06;;;;;;;6.22;3.65;;;12.50;99.90;;;;;;5055694;28;20024;-42
2022/05/22 04:46:31;;;;;;;6.80;3.90;;;12.50;99.90;;;;;;5061031;28;20051;-39
2022/05/22 04:48:57;;;;;;;6.95;3.70;;;12.50;99.90;;;;;;5058337;28;20017;-40
2022/05/22 04:51:23;;;;;;;8.75;4.30;;;12.50;99.90;;;;;;5058738;28;20499;-43
2022/05/22 04:53:49;;;;;;;7.70;3.72;;;12.60;99.90;;;;;;5060523;28;20016;-42
2022/05/22 04:56:15;;;;;;;8.35;4.10;;;12.70;99.90;;;;;;5056631;28;20094;-42
2022/05/22 04:58:41;;;;;;;6.15;4.32;;;12.70;99.90;;;;;;5062891;28;20460;-41
2022/05/22 05:01:09;;;;;;;7.40;3.97;;;12.70;99.90;;;;;;5054199;28;20044;-42
2022/05/22 05:03:34;;;;;;;8.25;3.70;;;12.80;99.90;;;;;;5064567;28;20044;-42
2022/05/22 05:06:00;;;;;;;7.53;3.50;;;12.80;99.90;;;;;;5065082;28;20035;-42
2022/05/22 05:08:27;;;;;;;5.57;3.30;;;12.80;99.90;;;;;;5064335;28;20036;-39
2022/05/22 05:10:53;;;;;;;5.28;3.35;;;12.80;99.90;;;;;;5064639;28;20021;-41
2022/05/22 05:13:20;;;;;;;6.25;4.07;;;12.80;99.90;;;;;;5064452;28;20016;-40
2022/05/22 05:15:46;;;;;;;5.45;2.95;;;12.80;99.90;;;;;;5064399;28;20072;-42
2022/05/22 05:18:13;;;;;;;7.88;3.90;;;12.80;99.90;;;;;;5065164;28;20056;-40
2022/05/22 05:20:39;;;;;;;6.15;3.55;;;12.80;99.90;;;;;;5064035;28;20546;-43
2022/05/22 05:23:05;;;;;;;6.32;3.88;;;12.80;99.90;;;;;;5064245;28;20060;-41
2022/05/22 05:25:37;;;;;;;7.50;3.78;;;12.90;99.90;;;;;;5063776;28;20119;-42
2022/05/22 05:28:02;;;;;;;5.27;3.83;;;12.90;99.90;;;;;;5065875;28;20031;-43
2022/05/22 05:30:28;;;;;;;6.90;4.13;;;12.90;99.90;;;;;;5064851;28;20024;-42
2022/05/22 05:32:56;;;;;;;7.07;4.30;;;12.90;99.90;;;;;;5068543;28;20049;-42
2022/05/22 05:35:21;;;;;;;7.45;4.45;;;12.90;99.90;;;;;;5068227;28;20093;-42
2022/05/22 05:37:47;;;;;;;9.13;4.45;;;13.00;99.90;;;;;;5068222;28;20037;-41
2022/05/22 05:40:13;;;;;;;6.72;4.55;;;13.00;99.90;;;;;;5067830;28;20028;-42
2022/05/22 05:42:40;;;;;;;7.00;4.68;;;13.10;99.90;;;;;;5067851;28;20472;-43
2022/05/22 05:45:08;;;;;;;6.70;4.90;;;13.10;99.90;;;;;;5068220;28;20480;-41
2022/05/22 05:47:33;;;;;;;6.65;3.90;;;13.10;99.90;;;;;;5066754;28;20028;-42
2022/05/22 05:49:59;;;;;;;8.55;5.40;;;13.20;99.90;;;;;;5067632;28;20036;-42
2022/05/22 05:52:25;;;;;;;10.60;4.88;;;13.20;99.90;;;;;;5068085;28;20028;-43
2022/05/22 05:54:51;;;;;;;8.18;4.72;;;13.30;99.90;;;;;;5067855;28;20021;-43
2022/05/22 05:57:17;;;;;;;6.57;4.88;;;13.30;99.90;;;;;;5067509;28;20019;-42
2022/05/22 05:59:43;;;;;;;7.20;4.15;;;13.40;99.90;;;;;;5068113;28;20127;-42
2022/05/22 06:02:12;;;;;;;5.32;4.28;;;13.40;99.90;;;;;;5066748;28;20125;-42
2022/05/22 06:04:39;;;;;;;8.95;5.10;;;13.40;99.90;;;;;;5047465;28;20037;-41
2022/05/22 06:07:05;;;;;;;7.45;4.07;;;13.50;99.90;;;;;;5058329;28;20028;-42
2022/05/22 06:09:31;;;;;;;6.03;4.20;;;13.50;99.90;;;;;;5047926;28;20477;-43
2022/05/22 06:11:57;;;;;;;4.85;3.65;;;13.60;99.90;;;;;;5055642;28;20043;-43
2022/05/22 06:14:22;;;;;;;7.63;3.90;;;13.60;99.90;;;;;;5051581;28;20654;-43
2022/05/22 06:16:48;;;;;;;4.93;3.25;;;13.70;99.90;;;;;;5053180;28;20052;-41
2022/05/22 06:19:14;;;;;;;5.25;3.20;;;13.70;99.90;;;;;;5053825;28;20040;-40
2022/05/22 06:21:42;;;;;;;5.35;3.40;;;13.70;99.90;;;;;;5049993;28;20417;-43
2022/05/22 06:24:07;;;;;;;6.63;3.40;;;13.80;99.90;;;;;;5056030;28;20025;-42
2022/05/22 06:26:33;;;;;;;4.03;3.10;;;13.80;99.90;;;;;;5064698;28;20669;-40
2022/05/22 06:28:58;;;;;;;3.88;2.60;;;13.80;99.90;;;;;;5055814;28;20028;-42
2022/05/22 06:31:24;;;;;;;6.32;2.63;;;13.90;99.90;;;;;;5065524;28;20055;-42
2022/05/22 06:33:50;;;;;;;2.78;2.20;;;13.90;99.90;;;;;;5055661;28;20033;-41
2022/05/22 06:36:16;;;;;;;4.47;2.58;;;14.00;99.90;;;;;;5066408;28;20094;-42
2022/05/22 06:39:49;;;;;;;4.88;2.40;;;14.00;99.90;;;;;;5053727;28;20023;-41
2022/05/22 06:41:46;;;;;;;4.30;2.08;;;14.10;99.90;;;;;;5064970;28;20040;-41
2022/05/22 06:44:11;;;;;;;5.20;2.17;;;14.10;99.90;;;;;;5055543;28;20082;-43
2022/05/22 06:46:36;;;;;;;4.88;1.90;;;14.20;99.90;;;;;;5066293;28;20028;-42
2022/05/22 06:49:02;;;;;;;6.47;2.33;;;14.20;99.90;;;;;;5054276;28;20502;-40
2022/05/22 06:51:28;;;;;;;4.63;2.70;;;14.30;99.90;;;;;;5065591;28;20140;-41
2022/05/22 06:53:53;;;;;;;5.40;2.33;;;14.30;99.90;;;;;;5053270;28;20360;-42
2022/05/22 06:56:19;;;;;;;4.47;2.88;;;14.40;99.90;;;;;;5065317;28;20111;-42
2022/05/22 06:58:45;;;;;;;3.80;1.95;;;14.50;99.90;;;;;;5054406;28;20075;-43
2022/05/22 07:01:14;;;;;;;3.63;1.63;;;14.50;99.90;;;;;;5064785;28;20036;-42
2022/05/22 07:03:40;;;;;;;4.00;2.05;;;14.60;99.90;;;;;;5058341;28;20033;-41
2022/05/22 07:06:05;;;;;;;2.47;1.85;;;14.60;99.90;;;;;;5062538;28;20093;-42
2022/05/22 07:08:31;;;;;;;3.78;1.83;;;14.70;99.90;;;;;;5060152;28;20032;-39
2022/05/22 07:13:41;;;;;;;5.35;2.00;;;14.80;99.90;;;;;;5060776;28;20031;-42
2022/05/22 07:16:06;;;;;;;5.88;1.92;;;14.80;99.90;;;;;;5059582;28;20036;-42
2022/05/22 07:18:32;;;;;;;5.70;3.60;;;14.90;99.90;;;;;;5062277;28;20093;-44
2022/05/22 07:20:58;;;;;;;5.82;2.40;;;14.90;99.90;;;;;;5056765;28;20031;-41
2022/05/22 07:23:23;;;;;;;7.85;2.65;;;15.00;99.90;;;;;;5064376;28;20029;-41
2022/05/22 07:25:50;;;;;;;5.43;2.53;;;15.00;99.90;;;;;;5051498;28;20041;-44
2022/05/22 07:28:15;;;;;;;5.65;2.08;;;15.10;99.90;;;;;;5047175;28;20048;-41
2022/05/22 07:30:41;;;;;;;4.10;2.00;;;15.10;99.90;;;;;;5057565;28;20028;-41
2022/05/22 07:33:06;;;;;;;4.18;2.13;;;15.20;99.90;;;;;;5046385;28;20469;-42
2022/05/22 07:35:32;;;;;;;5.13;2.17;;;15.20;99.90;;;;;;5057735;28;20115;-44
2022/05/22 07:37:59;;;;;;;3.38;1.65;;;15.30;99.90;;;;;;5042988;28;20056;-43
2022/05/22 07:40:24;;;;;;;3.40;1.67;;;15.40;99.90;;;;;;5056575;28;20028;-40
2022/05/22 07:42:50;;;;;;;3.83;1.85;;;15.50;99.90;;;;;;5045264;28;20036;-42
2022/05/22 07:45:16;;;;;;;6.63;1.92;;;15.60;99.90;;;;;;5055425;28;20033;-39
2022/05/22 07:47:42;;;;;;;3.25;1.73;;;15.60;99.90;;;;;;5046146;28;20479;-40
2022/05/22 07:50:18;;;;;;;4.50;2.00;;;15.60;99.90;;;;;;5052529;28;20024;-41
2022/05/22 07:52:45;;;;;;;3.55;1.60;;;15.70;99.90;;;;;;5047924;28;20554;-41
2022/05/22 07:55:15;;;;;;;3.47;1.50;;;15.70;99.90;;;;;;5050621;28;20023;-44
2022/05/22 07:57:42;;;;;;;4.03;1.50;;;15.70;99.90;;;;;;5049255;28;20028;-42
2022/05/22 08:00:13;;;;;;;3.80;1.48;;;15.80;99.90;;;;;;5050138;28;20434;-43
2022/05/22 08:02:38;;;;;;;3.10;1.45;;;15.80;99.90;;;;;;5062483;28;20484;-42
2022/05/22 08:05:05;;;;;;;2.83;1.20;;;15.80;99.90;;;;;;5061702;28;20032;-42
2022/05/22 08:07:31;;;;;;;5.88;1.65;;;15.80;99.90;;;;;;5054256;28;20907;-42
2022/05/22 08:09:57;;;;;;;6.13;1.90;;;15.90;99.90;;;;;;5063958;28;20091;-40
2022/05/22 08:12:23;;;;;;;3.70;1.63;;;15.90;99.90;;;;;;5052862;28;20074;-42
2022/05/22 08:14:49;;;;;;;3.05;1.20;;;15.90;99.90;;;;;;5062438;28;20025;-41
2022/05/22 08:17:21;;;;;;;3.63;1.38;;;15.90;99.90;;;;;;5053961;28;20024;-42
2022/05/22 08:19:48;;;;;;;1.75;1.00;;;16.00;99.90;;;;;;5065291;28;20056;-41
2022/05/22 08:22:15;;;;;;;2.40;1.10;;;16.00;99.90;;;;;;5052218;28;20460;-42
2022/05/22 08:24:40;;;;;;;3.92;1.08;;;16.10;99.90;;;;;;5064483;28;20078;-43
2022/05/22 08:27:06;;;;;;;3.10;1.35;;;16.10;99.90;;;;;;5052283;28;20074;-42
2022/05/22 08:29:34;;;;;;;2.38;1.10;;;16.20;99.90;;;;;;5064459;28;20343;-42
2022/05/22 08:32:00;;;;;;;3.90;1.00;;;16.30;99.90;;;;;;5053202;28;20117;-41
2022/05/22 08:34:26;;;;;;;1.90;0.82;;;16.30;99.90;;;;;;5064274;28;20108;-42
2022/05/22 08:36:52;;;;;;;2.10;0.77;;;16.30;99.90;;;;;;5054391;28;20033;-41
2022/05/22 08:39:18;;;;;;;2.45;1.10;;;16.30;99.90;;;;;;5061963;28;20028;-42
2022/05/22 08:41:50;;;;;;;2.60;0.98;;;16.40;99.90;;;;;;5057635;28;20503;-42
2022/05/22 08:44:22;;;;;;;2.72;0.85;;;16.40;99.90;;;;;;5059925;28;20033;-41
2022/05/22 08:47:20;;;;;;;3.35;1.13;;;16.50;99.90;;;;;;5058814;28;20025;-41
2022/05/22 08:49:47;;;;;;;2.47;1.17;;;16.50;99.90;;;;;;5062915;28;20136;-38
2022/05/22 08:52:41;;;;;;;3.03;0.95;;;16.50;99.90;;;;;;5057767;28;20028;-41
2022/05/22 08:55:16;;;;;;;2.95;0.90;;;16.50;99.90;;;;;;5065414;28;20033;-43
2022/05/22 09:00:31;;;;;;;2.55;0.80;;;16.60;99.90;;;;;;5025080;28;20143;-42
2022/05/22 09:03:04;;;;;;;3.22;0.95;;;16.60;99.90;;;;;;5060754;28;20044;-41
2022/05/22 09:05:31;;;;;;;2.75;1.23;;;16.60;99.90;;;;;;5066690;28;20375;-42
2022/05/22 09:08:06;;;;;;;2.15;1.00;;;16.60;99.90;;;;;;5068021;28;20107;-43
2022/05/22 09:10:53;;;;;;;3.83;0.90;;;16.70;99.90;;;;;;5067897;28;20476;-42
2022/05/22 09:13:30;;;;;;;2.08;0.80;;;16.80;99.90;;;;;;5069369;28;20060;-43
2022/05/22 09:16:06;;;;;;;1.52;0.70;;;16.80;99.90;;;;;;5062353;28;20074;-43
2022/05/22 09:18:55;;;;;;;4.30;1.00;;;16.80;99.90;;;;;;5067911;28;20039;-42
2022/05/22 09:21:41;;;;;;;3.85;1.05;;;16.90;99.90;;;;;;5049020;28;20817;-42
2022/05/22 09:24:39;;;;;;;3.63;0.80;;;17.00;99.90;;;;;;5068579;28;20071;-42
2022/05/22 09:27:09;;;;;;;2.03;0.90;;;17.10;99.80;;;;;;5032065;28;20045;-42
2022/05/22 09:29:57;;;;;;;2.72;0.90;;;17.10;99.70;;;;;;5068502;28;20075;-41
2022/05/22 09:32:41;;;;;;;2.85;0.80;;;17.20;99.50;;;;;;5068189;28;20025;-41
2022/05/22 09:35:19;;;;;;;2.55;0.75;;;17.20;99.50;;;;;;5068276;28;20176;-41
2022/05/22 09:37:59;;;;;;;1.55;0.90;;;17.30;99.40;;;;;;5068196;28;20055;-42
2022/05/22 09:40:39;;;;;;;1.27;0.68;;;17.30;99.30;;;;;;5054846;28;20048;-42
2022/05/22 09:43:29;;;;;;;2.13;0.80;;;17.40;99.30;;;;;;5067893;28;20031;-42
2022/05/22 09:46:16;;;;;;;1.65;0.80;;;17.40;99.00;;;;;;5060037;28;20189;-39
2022/05/22 09:48:52;;;;;;;1.48;0.90;;;17.50;99.00;;;;;;5068880;28;20127;-43
2022/05/22 09:51:48;;;;;;;2.45;0.75;;;17.50;98.90;;;;;;5067530;28;20118;-42
2022/05/22 09:54:43;;;;;;;1.30;0.57;;;17.60;98.80;;;;;;5067680;28;20021;-41
2022/05/22 09:57:27;;;;;;;3.05;1.40;;;17.70;98.70;;;;;;5067856;28;20033;-41
2022/05/22 10:00:17;;;;;;;2.80;0.90;;;17.80;98.40;;;;;;5066348;28;20021;-42
2022/05/22 10:03:09;;;;;;;3.13;0.70;;;17.80;98.30;;;;;;5048165;28;20504;-42
2022/05/22 10:05:57;;;;;;;2.40;0.95;;;17.80;98.30;;;;;;5041515;28;20051;-41
2022/05/22 10:08:49;;;;;;;1.92;0.90;;;17.90;98.30;;;;;;5064847;28;20028;-41
2022/05/22 10:11:38;;;;;;;3.65;0.98;;;17.90;98.20;;;;;;5064479;28;20029;-41
2022/05/22 10:14:34;;;;;;;2.92;0.80;;;18.00;98.20;;;;;;5066581;28;20107;-41
2022/05/22 10:17:00;;;;;;;2.05;0.98;;;18.00;98.00;;;;;;5058072;28;20420;-41
2022/05/22 10:19:48;;;;;;;1.67;0.85;;;18.00;98.00;;;;;;5067254;28;20020;-41
2022/05/22 10:22:43;;;;;;;2.45;1.10;;;18.10;97.80;;;;;;5066820;28;20048;-42
2022/05/22 10:25:29;;;;;;;3.80;1.05;;;18.10;97.80;;;;;;5048671;28;20032;-41
2022/05/22 10:28:04;;;;;;;2.60;1.17;;;18.20;97.40;;;;;;5066420;28;20551;-42
2022/05/22 10:30:40;;;;;;;2.75;1.25;;;18.20;97.30;;;;;;5066938;28;20055;-40
2022/05/22 10:33:11;;;;;;;3.17;1.15;;;18.20;97.20;;;;;;5066726;28;20041;-40
2022/05/22 10:35:48;;;;;;;5.25;1.42;;;18.30;97.10;;;;;;5066085;28;20575;-41
2022/05/22 10:38:21;;;;;;;4.10;0.98;;;18.30;96.70;;;;;;5066790;28;20054;-42
2022/05/22 10:43:35;;;;;;;2.28;1.10;;;18.30;96.80;;;;;;5065911;28;20062;-42
2022/05/22 10:46:01;;;;;;;1.25;0.80;;;18.40;96.70;;;;;;5066567;28;20380;-41
2022/05/22 10:48:28;;;;;;;3.58;1.45;;;18.60;96.50;;;;;;5064917;28;20044;-41
2022/05/22 10:51:08;;;;;;;3.30;1.10;;;18.80;96.30;;;;;;5066349;28;20476;-43
2022/05/22 10:53:48;;;;;;;3.38;1.10;;;18.80;96.00;;;;;;5066140;28;20044;-41
2022/05/22 10:56:14;;;;;;;0.85;0.70;;;18.90;96.00;;;;;;5065951;28;20362;-42
2022/05/22 10:58:51;;;;;;;2.78;1.20;;;18.90;96.00;;;;;;5066113;28;20555;-42
2022/05/22 11:01:20;;;;;;;3.47;1.40;;;18.90;95.80;;;;;;5066288;28;20036;-41
2022/05/22 11:03:47;;;;;;;3.38;1.25;;;19.00;95.80;;;;;;5052196;28;20052;-42
2022/05/22 11:06:21;;;;;;;2.03;1.08;;;19.00;95.80;;;;;;5049753;28;20082;-42
2022/05/22 11:08:53;;;;;;;2.95;1.42;;;19.00;95.50;;;;;;5054127;28;20711;-42
2022/05/22 11:11:38;;;;;;;2.80;1.15;;;19.10;95.40;;;;;;5049816;28;20017;-42
2022/05/22 11:14:07;;;;;;;3.08;1.10;;;19.10;95.40;;;;;;5052741;28;20041;-41
2022/05/22 11:16:32;;;;;;;2.70;0.95;;;19.10;95.30;;;;;;5049337;28;20492;-41
2022/05/22 11:19:09;;;;;;;2.17;0.90;;;19.10;95.30;;;;;;5054536;28;20036;-42
2022/05/22 11:21:47;;;;;;;1.92;1.25;;;19.20;95.40;;;;;;5048435;28;20029;-43
2022/05/22 11:24:17;;;;;;;2.65;1.17;;;19.30;95.20;;;;;;5053948;28;20037;-41
2022/05/22 11:27:07;;;;;;;3.28;1.27;;;19.40;95.20;;;;;;5060554;28;20412;-41
2022/05/22 11:30:00;;;;;;;1.35;0.88;;;19.60;95.00;;;;;;5057755;28;20478;-42
2022/05/22 11:32:50;;;;;;;1.92;0.90;;;19.60;95.00;;;;;;5058680;28;20554;-42
2022/05/22 11:35:32;;;;;;;4.03;0.90;;;19.60;95.00;;;;;;5063956;28;20040;-42
2022/05/22 11:38:27;;;;;;;2.80;0.90;;;19.60;94.90;;;;;;5055939;28;20033;-41
2022/05/22 11:41:13;;;;;;;2.33;0.70;;;19.70;94.70;;;;;;5025741;28;20029;-41
2022/05/22 11:44:06;;;;;;;2.47;1.00;;;19.70;94.70;;;;;;5056082;28;20032;-42
2022/05/22 11:46:56;;;;;;;1.48;0.82;;;19.80;94.60;;;;;;5045260;28;20768;-41
2022/05/22 11:49:42;;;;;;;4.07;0.95;;;19.80;94.60;;;;;;5054303;28;20390;-42
2022/05/22 11:55:38;;;;;;;2.38;1.00;;;19.80;94.60;;;;;;5048261;28;20526;-42
2022/05/22 11:58:28;;;;;;;3.75;1.48;;;19.80;94.80;;;;;;5040647;28;20040;-42
2022/05/22 12:01:23;;;;;;;4.55;1.80;;;19.80;93.90;;;;;;5061406;28;20025;-41
2022/05/22 12:04:27;;;;;;;2.47;1.15;;;19.80;94.00;;;;;;5055811;28;20051;-40
2022/05/22 12:07:24;;;;;;;2.75;1.17;;;19.80;94.10;;;;;;5024780;28;20493;-38
2022/05/22 12:10:17;;;;;;;3.63;1.13;;;19.80;94.00;;;;;;5052156;28;20017;-43
2022/05/22 12:13:05;;;;;;;4.10;1.13;;;20.00;93.90;;;;;;5064042;28;20032;-40
2022/05/22 12:15:44;;;;;;;2.38;1.30;;;20.00;93.80;;;;;;5053880;28;20027;-42
2022/05/22 12:18:37;;;;;;;2.60;1.35;;;20.10;93.80;;;;;;5063598;28;20052;-41
2022/05/22 12:21:09;;;;;;;;;;;20.10;93.70;;;;;;5048336;28;20029;-41
2022/05/22 12:24:07;;;;;;;2.20;1.63;;;20.10;93.70;;;;;;5062929;28;19908;-42
2022/05/22 12:26:35;;;;;;;2.83;1.63;;;20.10;93.50;;;;;;5062241;28;20686;-42
2022/05/22 12:29:13;;;;;;;3.20;1.70;;;20.10;93.50;;;;;;5060917;28;20032;-43
2022/05/22 12:31:47;;;;;;;2.90;1.67;;;20.20;93.60;;;;;;5058625;28;20024;-44
2022/05/22 12:34:21;;;;;;;2.35;1.70;;;20.20;93.40;;;;;;5061231;28;20029;-41
2022/05/22 12:36:53;;;;;;;3.33;2.15;;;20.20;93.40;;;;;;5057518;28;20021;-42
2022/05/22 12:39:19;;;;;;;3.08;2.00;;;20.10;92.90;;;;;;5061432;28;20064;-42
2022/05/22 12:41:54;;;;;;;3.63;2.58;;;20.10;93.00;;;;;;5060181;28;20035;-42
2022/05/22 12:44:20;;;;;;;4.05;2.03;;;20.00;93.00;;;;;;5066536;28;20036;-42
2022/05/22 12:46:47;;;;;;;2.55;1.70;;;20.00;93.00;;;;;;5058768;28;20443;-42
2022/05/22 12:49:27;;;;;;;3.22;1.50;;;20.10;93.20;;;;;;5067127;28;20027;-43
2022/05/22 12:52:14;;;;;;;4.00;1.67;;;20.10;93.30;;;;;;5048607;28;20045;-42
2022/05/22 12:54:40;;;;;;;4.45;1.90;;;20.20;93.20;;;;;;5066124;28;20028;-42
2022/05/22 12:57:12;;;;;;;3.22;1.73;;;20.20;93.00;;;;;;5058562;28;20433;-41
2022/05/22 12:59:48;;;;;;;3.05;2.30;;;20.30;92.90;;;;;;5067241;28;20092;-39
2022/05/22 13:02:42;;;;;;;2.20;1.80;;;20.30;92.90;;;;;;5048188;28;20048;-42
2022/05/22 13:05:25;;;;;;;3.30;1.70;;;20.40;92.80;;;;;;5065105;28;20028;-42
2022/05/22 13:07:51;;;;;;;3.45;1.75;;;20.50;92.60;;;;;;5062273;28;20042;-42
2022/05/22 13:11:03;;;;;;;3.85;1.77;;;20.50;92.60;;;;;;5065395;28;20020;-42
2022/05/22 13:13:46;;;;;;;3.25;1.92;;;20.60;92.60;;;;;;5052166;28;20037;-42
2022/05/22 13:16:12;;;;;;;3.38;1.73;;;20.70;92.50;;;;;;5059173;28;20496;-41
2022/05/22 13:18:46;;;;;;;3.83;2.00;;;20.70;92.20;;;;;;5064410;28;20047;-43
2022/05/22 13:21:29;;;;;;;3.75;1.80;;;20.80;92.10;;;;;;5060684;28;20404;-42
2022/05/22 13:24:03;;;;;;;3.47;1.77;;;20.80;91.80;;;;;;5066285;28;20052;-42
2022/05/22 13:26:31;;;;;;;3.40;1.40;;;20.90;91.80;;;;;;5057695;28;20048;-42
2022/05/22 13:29:15;;;;;;;4.45;2.00;;;20.90;91.90;;;;;;5064640;28;20102;-42
2022/05/22 13:31:49;;;;;;;3.80;2.00;;;21.00;91.80;;;;;;5058308;28;20570;-41